sensor_id;sensor_type;location;lat;lon;timestamp;temperature;humidity
27633;DHT22;15046;50.930;13.334;2022-12-18T00:01:52;-7.90;99.90
27633;DHT22;15046;50.930;13.334;2022-12-18T00:04:21;-7.90;99.90
27633;DHT22;15046;50.930;13.334;2022-12-18T00:06:48;-7.90;99.90
27633;DHT22;15046;50.930;13.334;2022-12-18T00:09:14;-7.90;99.90
27633;DHT22;15046;50.930;13.334;2022-12-18T00:11:41;-8.00;99.90
27633;DHT22;15046;50.930;13.334;2022-12-18T00:14:06;-8.00;99.90
27633;DHT22;15046;50.930;13.334;2022-12-18T00:16:32;-8.00;99.90
27633;DHT22;15046;50.930;13.334;2022-12-18T00:19:01;-8.00;99.90
27633;DHT22;15046;50.930;13.334;2022-12-18T00:21:28;-8.00;99.90
27633;DHT22;15046;50.930;13.334;2022-12-18T00:23:54;-8.10;99.90
27633;DHT22;15046;50.930;13.334;2022-12-18T00:26:22;-8.10;99.90
27633;DHT22;15046;50.930;13.334;2022-12-18T00:28:49;-8.10;99.90
27633;DHT22;15046;50.930;13.334;2022-12-18T00:31:18;-8.10;99.90
27633;DHT22;15046;50.930;13.334;2022-12-18T00:33:44;-8.10;99.90
27633;DHT22;15046;50.930;13.334;2022-12-18T00:36:12;-8.10;99.90
27633;DHT22;15046;50.930;13.334;2022-12-18T00:38:39;-8.10;99.90
27633;DHT22;15046;50.930;13.334;2022-12-18T00:41:06;-8.10;99.90
27633;DHT22;15046;50.930;13.334;2022-12-18T00:43:36;-8.10;99.90
27633;DHT22;15046;50.930;13.334;2022-12-18T00:46:02;-8.10;99.90
27633;DHT22;15046;50.930;13.334;2022-12-18T00:48:28;-8.10;99.90
27633;DHT22;15046;50.930;13.334;2022-12-18T00:50:54;-8.10;99.90
27633;DHT22;15046;50.930;13.334;2022-12-18T00:53:20;-8.10;99.90
27633;DHT22;15046;50.930;13.334;2022-12-18T00:55:46;-8.10;99.90
27633;DHT22;15046;50.930;13.334;2022-12-18T00:58:13;-8.10;99.90
27633;DHT22;15046;50.930;13.334;2022-12-18T01:00:39;-8.10;99.90
27633;DHT22;15046;50.930;13.334;2022-12-18T01:03:05;-8.10;99.90
27633;DHT22;15046;50.930;13.334;2022-12-18T01:05:31;-8.10;99.90
27633;DHT22;15046;50.930;13.334;2022-12-18T01:07:57;-8.10;99.90
27633;DHT22;15046;50.930;13.334;2022-12-18T01:10:23;-8.10;99.90
27633;DHT22;15046;50.930;13.334;2022-12-18T01:12:50;-8.20;99.90
27633;DHT22;15046;50.930;13.334;2022-12-18T01:15:16;-8.20;99.90
27633;DHT22;15046;50.930;13.334;2022-12-18T01:17:43;-8.20;99.90
27633;DHT22;15046;50.930;13.334;2022-12-18T01:20:10;-8.30;99.90
27633;DHT22;15046;50.930;13.334;2022-12-18T01:22:36;-8.30;99.90
27633;DHT22;15046;50.930;13.334;2022-12-18T01:25:03;-8.20;99.90
27633;DHT22;15046;50.930;13.334;2022-12-18T01:27:29;-8.30;99.90
27633;DHT22;15046;50.930;13.334;2022-12-18T01:29:55;-8.30;99.90
27633;DHT22;15046;50.930;13.334;2022-12-18T01:32:21;-8.30;99.90
27633;DHT22;15046;50.930;13.334;2022-12-18T01:34:47;-8.30;99.90
27633;DHT22;15046;50.930;13.334;2022-12-18T01:37:13;-8.30;99.90
27633;DHT22;15046;50.930;13.334;2022-12-18T01:39:39;-8.30;99.90
27633;DHT22;15046;50.930;13.334;2022-12-18T01:42:11;-8.30;99.90
27633;DHT22;15046;50.930;13.334;2022-12-18T01:47:46;-8.30;99.90
27633;DHT22;15046;50.930;13.334;2022-12-18T01:50:23;-8.40;99.90
27633;DHT22;15046;50.930;13.334;2022-12-18T01:52:53;-8.40;99.90
27633;DHT22;15046;50.930;13.334;2022-12-18T01:55:22;-8.40;99.90
27633;DHT22;15046;50.930;13.334;2022-12-18T01:57:51;-8.40;99.90
27633;DHT22;15046;50.930;13.334;2022-12-18T02:00:19;-8.40;99.90
27633;DHT22;15046;50.930;13.334;2022-12-18T02:02:46;-8.40;99.90
27633;DHT22;15046;50.930;13.334;2022-12-18T02:05:16;-8.50;99.90
27633;DHT22;15046;50.930;13.334;2022-12-18T02:07:49;-8.50;99.90
27633;DHT22;15046;50.930;13.334;2022-12-18T02:13:19;-8.40;99.90
27633;DHT22;15046;50.930;13.334;2022-12-18T02:16:24;-8.40;99.90
27633;DHT22;15046;50.930;13.334;2022-12-18T02:18:56;-8.50;99.90
27633;DHT22;15046;50.930;13.334;2022-12-18T02:26:27;-8.60;99.90
27633;DHT22;15046;50.930;13.334;2022-12-18T02:29:06;-8.70;99.90
27633;DHT22;15046;50.930;13.334;2022-12-18T02:31:39;-8.70;99.90
27633;DHT22;15046;50.930;13.334;2022-12-18T02:34:07;-8.70;99.90
27633;DHT22;15046;50.930;13.334;2022-12-18T02:36:36;-8.70;99.90
27633;DHT22;15046;50.930;13.334;2022-12-18T02:39:05;-8.70;99.90
27633;DHT22;15046;50.930;13.334;2022-12-18T02:41:31;-8.70;99.90
27633;DHT22;15046;50.930;13.334;2022-12-18T02:44:00;-8.70;99.90
27633;DHT22;15046;50.930;13.334;2022-12-18T02:46:36;-8.80;99.90
27633;DHT22;15046;50.930;13.334;2022-12-18T02:51:47;-8.80;99.90
27633;DHT22;15046;50.930;13.334;2022-12-18T02:57:30;-8.90;99.90
27633;DHT22;15046;50.930;13.334;2022-12-18T03:02:38;-9.00;99.90
27633;DHT22;15046;50.930;13.334;2022-12-18T03:05:17;-9.00;99.90
27633;DHT22;15046;50.930;13.334;2022-12-18T03:07:59;-9.00;99.90
27633;DHT22;15046;50.930;13.334;2022-12-18T03:10:30;-9.00;99.90
27633;DHT22;15046;50.930;13.334;2022-12-18T03:13:04;-9.00;99.90
27633;DHT22;15046;50.930;13.334;2022-12-18T03:15:42;-9.00;99.90
27633;DHT22;15046;50.930;13.334;2022-12-18T03:20:47;-9.00;99.90
27633;DHT22;15046;50.930;13.334;2022-12-18T03:23:23;-8.90;99.90
27633;DHT22;15046;50.930;13.334;2022-12-18T03:25:52;-9.00;99.90
27633;DHT22;15046;50.930;13.334;2022-12-18T03:28:21;-9.00;99.90
27633;DHT22;15046;50.930;13.334;2022-12-18T03:30:51;-9.00;99.90
27633;DHT22;15046;50.930;13.334;2022-12-18T03:33:28;-9.00;99.90
27633;DHT22;15046;50.930;13.334;2022-12-18T03:35:55;-9.00;99.90
27633;DHT22;15046;50.930;13.334;2022-12-18T03:38:21;-9.00;99.90
27633;DHT22;15046;50.930;13.334;2022-12-18T03:41:02;-9.00;99.90
27633;DHT22;15046;50.930;13.334;2022-12-18T03:43:36;-9.00;99.90
27633;DHT22;15046;50.930;13.334;2022-12-18T03:46:33;-9.00;99.90
27633;DHT22;15046;50.930;13.334;2022-12-18T03:51:43;-9.00;99.90
27633;DHT22;15046;50.930;13.334;2022-12-18T03:54:15;-9.00;99.90
27633;DHT22;15046;50.930;13.334;2022-12-18T03:56:48;-9.00;99.90
27633;DHT22;15046;50.930;13.334;2022-12-18T03:59:16;-9.00;99.90
27633;DHT22;15046;50.930;13.334;2022-12-18T04:01:47;-9.00;99.90
27633;DHT22;15046;50.930;13.334;2022-12-18T04:04:15;-9.00;99.90
27633;DHT22;15046;50.930;13.334;2022-12-18T04:06:42;-9.00;99.90
27633;DHT22;15046;50.930;13.334;2022-12-18T04:09:09;-9.00;99.90
27633;DHT22;15046;50.930;13.334;2022-12-18T04:11:35;-9.00;99.90
27633;DHT22;15046;50.930;13.334;2022-12-18T04:14:01;-9.00;99.90
27633;DHT22;15046;50.930;13.334;2022-12-18T04:16:27;-9.00;99.90
27633;DHT22;15046;50.930;13.334;2022-12-18T04:18:53;-9.00;99.90
27633;DHT22;15046;50.930;13.334;2022-12-18T04:21:19;-9.00;99.90
27633;DHT22;15046;50.930;13.334;2022-12-18T04:23:45;-9.00;99.90
27633;DHT22;15046;50.930;13.334;2022-12-18T04:26:12;-9.00;99.90
27633;DHT22;15046;50.930;13.334;2022-12-18T04:28:37;-9.10;99.90
27633;DHT22;15046;50.930;13.334;2022-12-18T04:31:03;-9.10;99.90
27633;DHT22;15046;50.930;13.334;2022-12-18T04:33:29;-9.10;99.90
27633;DHT22;15046;50.930;13.334;2022-12-18T04:35:55;-9.10;99.90
27633;DHT22;15046;50.930;13.334;2022-12-18T04:38:21;-9.10;99.90
27633;DHT22;15046;50.930;13.334;2022-12-18T04:40:47;-9.20;99.90
27633;DHT22;15046;50.930;13.334;2022-12-18T04:43:13;-9.10;99.90
27633;DHT22;15046;50.930;13.334;2022-12-18T04:45:38;-9.10;99.90
27633;DHT22;15046;50.930;13.334;2022-12-18T04:48:04;-9.20;99.90
27633;DHT22;15046;50.930;13.334;2022-12-18T04:50:30;-9.10;99.90
27633;DHT22;15046;50.930;13.334;2022-12-18T04:52:56;-9.20;99.90
27633;DHT22;15046;50.930;13.334;2022-12-18T04:55:22;-9.20;99.90
27633;DHT22;15046;50.930;13.334;2022-12-18T04:57:48;-9.20;99.90
27633;DHT22;15046;50.930;13.334;2022-12-18T05:00:14;-9.20;99.90
27633;DHT22;15046;50.930;13.334;2022-12-18T05:02:40;-9.20;99.90
27633;DHT22;15046;50.930;13.334;2022-12-18T05:05:07;-9.20;99.90
27633;DHT22;15046;50.930;13.334;2022-12-18T05:07:33;-9.10;99.90
27633;DHT22;15046;50.930;13.334;2022-12-18T05:09:58;-9.10;99.90
27633;DHT22;15046;50.930;13.334;2022-12-18T05:12:24;-9.10;99.90
27633;DHT22;15046;50.930;13.334;2022-12-18T05:14:50;-9.10;99.90
27633;DHT22;15046;50.930;13.334;2022-12-18T05:17:16;-9.10;99.90
27633;DHT22;15046;50.930;13.334;2022-12-18T05:19:42;-9.10;99.90
27633;DHT22;15046;50.930;13.334;2022-12-18T05:22:08;-9.10;99.90
27633;DHT22;15046;50.930;13.334;2022-12-18T05:24:33;-9.10;99.90
27633;DHT22;15046;50.930;13.334;2022-12-18T05:26:59;-9.10;99.90
27633;DHT22;15046;50.930;13.334;2022-12-18T05:29:25;-9.10;99.90
27633;DHT22;15046;50.930;13.334;2022-12-18T05:31:51;-9.10;99.90
27633;DHT22;15046;50.930;13.334;2022-12-18T05:34:16;-9.10;99.90
27633;DHT22;15046;50.930;13.334;2022-12-18T05:36:42;-9.20;99.90
27633;DHT22;15046;50.930;13.334;2022-12-18T05:39:09;-9.20;99.90
27633;DHT22;15046;50.930;13.334;2022-12-18T05:41:35;-9.20;99.90
27633;DHT22;15046;50.930;13.334;2022-12-18T05:44:00;-9.20;99.90
27633;DHT22;15046;50.930;13.334;2022-12-18T05:46:26;-9.20;99.90
27633;DHT22;15046;50.930;13.334;2022-12-18T05:48:52;-9.20;99.90
27633;DHT22;15046;50.930;13.334;2022-12-18T05:51:20;-9.20;99.90
27633;DHT22;15046;50.930;13.334;2022-12-18T05:53:46;-9.20;99.90
27633;DHT22;15046;50.930;13.334;2022-12-18T05:56:15;-9.30;99.90
27633;DHT22;15046;50.930;13.334;2022-12-18T05:58:41;-9.30;99.90
27633;DHT22;15046;50.930;13.334;2022-12-18T06:01:17;-9.40;99.90
27633;DHT22;15046;50.930;13.334;2022-12-18T06:03:43;-9.40;99.90
27633;DHT22;15046;50.930;13.334;2022-12-18T06:06:20;-9.40;99.90
27633;DHT22;15046;50.930;13.334;2022-12-18T06:08:48;-9.40;99.90
27633;DHT22;15046;50.930;13.334;2022-12-18T06:11:17;-9.40;99.90
27633;DHT22;15046;50.930;13.334;2022-12-18T06:13:43;-9.40;99.90
27633;DHT22;15046;50.930;13.334;2022-12-18T06:16:09;-9.30;99.90
27633;DHT22;15046;50.930;13.334;2022-12-18T06:18:34;-9.30;99.90
27633;DHT22;15046;50.930;13.334;2022-12-18T06:21:00;-9.40;99.90
27633;DHT22;15046;50.930;13.334;2022-12-18T06:23:27;-9.30;99.90
27633;DHT22;15046;50.930;13.334;2022-12-18T06:25:53;-9.30;99.90
27633;DHT22;15046;50.930;13.334;2022-12-18T06:28:19;-9.30;99.90
27633;DHT22;15046;50.930;13.334;2022-12-18T06:30:46;-9.30;99.90
27633;DHT22;15046;50.930;13.334;2022-12-18T06:33:14;-9.40;99.90
27633;DHT22;15046;50.930;13.334;2022-12-18T06:35:40;-9.40;99.90
27633;DHT22;15046;50.930;13.334;2022-12-18T06:38:07;-9.40;99.90
27633;DHT22;15046;50.930;13.334;2022-12-18T06:40:33;-9.40;99.90
27633;DHT22;15046;50.930;13.334;2022-12-18T06:42:59;-9.40;99.90
27633;DHT22;15046;50.930;13.334;2022-12-18T06:45:25;-9.40;99.90
27633;DHT22;15046;50.930;13.334;2022-12-18T06:47:50;-9.40;99.90
27633;DHT22;15046;50.930;13.334;2022-12-18T06:50:16;-9.40;99.90
27633;DHT22;15046;50.930;13.334;2022-12-18T06:52:42;-9.40;99.90
27633;DHT22;15046;50.930;13.334;2022-12-18T06:55:09;-9.40;99.90
27633;DHT22;15046;50.930;13.334;2022-12-18T06:57:35;-9.40;99.90
27633;DHT22;15046;50.930;13.334;2022-12-18T07:00:05;-9.40;99.90
27633;DHT22;15046;50.930;13.334;2022-12-18T07:02:31;-9.30;99.90
27633;DHT22;15046;50.930;13.334;2022-12-18T07:04:57;-9.30;99.90
27633;DHT22;15046;50.930;13.334;2022-12-18T07:07:23;-9.30;99.90
27633;DHT22;15046;50.930;13.334;2022-12-18T07:09:50;-9.30;99.90
27633;DHT22;15046;50.930;13.334;2022-12-18T07:12:16;-9.30;99.90
27633;DHT22;15046;50.930;13.334;2022-12-18T07:14:42;-9.30;99.90
27633;DHT22;15046;50.930;13.334;2022-12-18T07:17:08;-9.30;99.90
27633;DHT22;15046;50.930;13.334;2022-12-18T07:19:34;-9.30;99.90
27633;DHT22;15046;50.930;13.334;2022-12-18T07:22:00;-9.20;99.90
27633;DHT22;15046;50.930;13.334;2022-12-18T07:24:26;-9.20;99.90
27633;DHT22;15046;50.930;13.334;2022-12-18T07:26:52;-9.20;99.90
27633;DHT22;15046;50.930;13.334;2022-12-18T07:29:18;-9.10;99.90
27633;DHT22;15046;50.930;13.334;2022-12-18T07:31:44;-9.00;99.90
27633;DHT22;15046;50.930;13.334;2022-12-18T07:34:11;-8.90;99.90
27633;DHT22;15046;50.930;13.334;2022-12-18T07:36:38;-8.80;99.90
27633;DHT22;15046;50.930;13.334;2022-12-18T07:39:04;-8.70;99.90
27633;DHT22;15046;50.930;13.334;2022-12-18T07:41:29;-8.70;99.90
27633;DHT22;15046;50.930;13.334;2022-12-18T07:43:55;-8.60;99.90
27633;DHT22;15046;50.930;13.334;2022-12-18T07:46:21;-8.50;99.90
27633;DHT22;15046;50.930;13.334;2022-12-18T07:48:47;-8.50;99.90
27633;DHT22;15046;50.930;13.334;2022-12-18T07:51:13;-8.50;99.90
27633;DHT22;15046;50.930;13.334;2022-12-18T07:53:40;-8.50;99.90
27633;DHT22;15046;50.930;13.334;2022-12-18T07:56:09;-8.40;99.90
27633;DHT22;15046;50.930;13.334;2022-12-18T07:58:36;-8.40;99.90
27633;DHT22;15046;50.930;13.334;2022-12-18T08:01:04;-8.40;99.90
27633;DHT22;15046;50.930;13.334;2022-12-18T08:03:30;-8.30;99.90
27633;DHT22;15046;50.930;13.334;2022-12-18T08:06:03;-8.20;99.90
27633;DHT22;15046;50.930;13.334;2022-12-18T08:08:30;-8.10;99.90
27633;DHT22;15046;50.930;13.334;2022-12-18T08:10:56;-8.00;99.90
27633;DHT22;15046;50.930;13.334;2022-12-18T08:13:22;-8.00;99.90
27633;DHT22;15046;50.930;13.334;2022-12-18T08:15:59;-7.90;99.90
27633;DHT22;15046;50.930;13.334;2022-12-18T08:18:25;-7.70;99.90
27633;DHT22;15046;50.930;13.334;2022-12-18T08:20:51;-7.60;99.90
27633;DHT22;15046;50.930;13.334;2022-12-18T08:23:16;-7.60;99.90
27633;DHT22;15046;50.930;13.334;2022-12-18T08:25:42;-7.50;99.90
27633;DHT22;15046;50.930;13.334;2022-12-18T08:28:09;-7.40;99.90
27633;DHT22;15046;50.930;13.334;2022-12-18T08:30:35;-7.40;99.90
27633;DHT22;15046;50.930;13.334;2022-12-18T08:33:01;-7.30;99.90
27633;DHT22;15046;50.930;13.334;2022-12-18T08:35:28;-7.20;99.90
27633;DHT22;15046;50.930;13.334;2022-12-18T08:37:53;-7.10;99.90
27633;DHT22;15046;50.930;13.334;2022-12-18T08:40:19;-7.00;99.90
27633;DHT22;15046;50.930;13.334;2022-12-18T08:42:45;-6.90;99.90
27633;DHT22;15046;50.930;13.334;2022-12-18T08:45:29;-6.80;99.90
27633;DHT22;15046;50.930;13.334;2022-12-18T08:47:55;-6.70;99.90
27633;DHT22;15046;50.930;13.334;2022-12-18T08:50:20;-6.60;99.90
27633;DHT22;15046;50.930;13.334;2022-12-18T08:52:46;-6.50;99.90
27633;DHT22;15046;50.930;13.334;2022-12-18T08:55:12;-6.40;99.90
27633;DHT22;15046;50.930;13.334;2022-12-18T08:57:38;-6.30;99.90
27633;DHT22;15046;50.930;13.334;2022-12-18T09:00:04;-6.20;99.90
27633;DHT22;15046;50.930;13.334;2022-12-18T09:02:30;-6.10;99.90
27633;DHT22;15046;50.930;13.334;2022-12-18T09:04:56;-6.00;99.90
27633;DHT22;15046;50.930;13.334;2022-12-18T09:07:22;-5.90;99.90
27633;DHT22;15046;50.930;13.334;2022-12-18T09:09:47;-5.80;99.90
27633;DHT22;15046;50.930;13.334;2022-12-18T09:12:13;-5.70;99.90
27633;DHT22;15046;50.930;13.334;2022-12-18T09:14:39;-5.50;99.90
27633;DHT22;15046;50.930;13.334;2022-12-18T09:17:05;-5.50;99.90
27633;DHT22;15046;50.930;13.334;2022-12-18T09:19:31;-5.40;99.90
27633;DHT22;15046;50.930;13.334;2022-12-18T09:21:56;-5.30;99.90
27633;DHT22;15046;50.930;13.334;2022-12-18T09:24:22;-5.10;99.90
27633;DHT22;15046;50.930;13.334;2022-12-18T09:26:48;-4.90;99.90
27633;DHT22;15046;50.930;13.334;2022-12-18T09:29:15;-4.50;99.90
27633;DHT22;15046;50.930;13.334;2022-12-18T09:31:40;-4.00;99.90
27633;DHT22;15046;50.930;13.334;2022-12-18T09:34:07;-3.70;99.90
27633;DHT22;15046;50.930;13.334;2022-12-18T09:36:33;-3.40;99.90
27633;DHT22;15046;50.930;13.334;2022-12-18T09:38:59;-3.20;99.90
27633;DHT22;15046;50.930;13.334;2022-12-18T09:41:45;-3.00;99.90
27633;DHT22;15046;50.930;13.334;2022-12-18T09:44:39;-2.90;99.90
27633;DHT22;15046;50.930;13.334;2022-12-18T09:47:15;-2.70;99.90
27633;DHT22;15046;50.930;13.334;2022-12-18T09:49:46;-2.60;99.90
27633;DHT22;15046;50.930;13.334;2022-12-18T09:52:29;-2.50;99.90
27633;DHT22;15046;50.930;13.334;2022-12-18T09:57:47;-2.20;99.90
27633;DHT22;15046;50.930;13.334;2022-12-18T10:00:18;-2.00;99.90
27633;DHT22;15046;50.930;13.334;2022-12-18T10:02:45;-1.80;99.90
27633;DHT22;15046;50.930;13.334;2022-12-18T10:05:12;-1.60;99.90
27633;DHT22;15046;50.930;13.334;2022-12-18T10:08:02;-1.40;99.90
27633;DHT22;15046;50.930;13.334;2022-12-18T10:10:51;-1.20;99.90
27633;DHT22;15046;50.930;13.334;2022-12-18T10:13:31;-0.90;99.90
27633;DHT22;15046;50.930;13.334;2022-12-18T10:19:05;-0.20;99.90
27633;DHT22;15046;50.930;13.334;2022-12-18T10:21:48;0.20;99.90
27633;DHT22;15046;50.930;13.334;2022-12-18T10:24:39;0.80;99.90
27633;DHT22;15046;50.930;13.334;2022-12-18T10:27:24;1.50;99.90
27633;DHT22;15046;50.930;13.334;2022-12-18T10:29:50;2.40;99.90
27633;DHT22;15046;50.930;13.334;2022-12-18T10:32:19;3.20;99.90
27633;DHT22;15046;50.930;13.334;2022-12-18T10:34:49;4.10;99.90
27633;DHT22;15046;50.930;13.334;2022-12-18T10:37:21;5.20;99.90
27633;DHT22;15046;50.930;13.334;2022-12-18T10:40:13;6.40;99.90
27633;DHT22;15046;50.930;13.334;2022-12-18T10:42:40;7.50;99.90
27633;DHT22;15046;50.930;13.334;2022-12-18T10:45:11;8.50;99.40
27633;DHT22;15046;50.930;13.334;2022-12-18T10:47:42;9.10;97.70
27633;DHT22;15046;50.930;13.334;2022-12-18T10:50:19;9.50;95.90
27633;DHT22;15046;50.930;13.334;2022-12-18T10:52:58;9.90;94.40
27633;DHT22;15046;50.930;13.334;2022-12-18T10:55:30;10.40;93.60
27633;DHT22;15046;50.930;13.334;2022-12-18T10:58:16;10.90;92.20
27633;DHT22;15046;50.930;13.334;2022-12-18T11:00:45;11.50;90.80
27633;DHT22;15046;50.930;13.334;2022-12-18T11:03:32;11.90;89.00
27633;DHT22;15046;50.930;13.334;2022-12-18T11:06:22;11.80;87.10
27633;DHT22;15046;50.930;13.334;2022-12-18T11:09:18;11.90;84.00
27633;DHT22;15046;50.930;13.334;2022-12-18T11:11:50;11.70;83.80
27633;DHT22;15046;50.930;13.334;2022-12-18T11:16:50;11.50;82.20
27633;DHT22;15046;50.930;13.334;2022-12-18T11:21:54;11.60;81.30
27633;DHT22;15046;50.930;13.334;2022-12-18T11:24:36;11.80;80.80
27633;DHT22;15046;50.930;13.334;2022-12-18T11:27:03;12.00;79.70
27633;DHT22;15046;50.930;13.334;2022-12-18T11:29:38;12.20;79.40
27633;DHT22;15046;50.930;13.334;2022-12-18T11:32:34;12.60;78.80
27633;DHT22;15046;50.930;13.334;2022-12-18T11:37:48;12.40;76.40
27633;DHT22;15046;50.930;13.334;2022-12-18T11:40:20;12.30;76.50
27633;DHT22;15046;50.930;13.334;2022-12-18T11:42:57;12.10;75.60
27633;DHT22;15046;50.930;13.334;2022-12-18T11:45:30;11.60;74.90
27633;DHT22;15046;50.930;13.334;2022-12-18T11:48:41;11.30;76.30
27633;DHT22;15046;50.930;13.334;2022-12-18T11:51:19;11.20;76.50
27633;DHT22;15046;50.930;13.334;2022-12-18T11:53:49;11.60;76.50
27633;DHT22;15046;50.930;13.334;2022-12-18T11:56:39;12.00;76.70
27633;DHT22;15046;50.930;13.334;2022-12-18T12:16:03;13.80;70.30
27633;DHT22;15046;50.930;13.334;2022-12-18T12:18:36;13.50;70.00
27633;DHT22;15046;50.930;13.334;2022-12-18T12:23:56;10.30;71.40
27633;DHT22;15046;50.930;13.334;2022-12-18T12:26:34;8.80;73.80
27633;DHT22;15046;50.930;13.334;2022-12-18T12:37:55;9.30;72.90
27633;DHT22;15046;50.930;13.334;2022-12-18T12:40:26;8.40;74.80
27633;DHT22;15046;50.930;13.334;2022-12-18T12:43:01;7.60;76.00
27633;DHT22;15046;50.930;13.334;2022-12-18T12:45:57;7.00;77.00
27633;DHT22;15046;50.930;13.334;2022-12-18T12:48:46;6.10;76.50
27633;DHT22;15046;50.930;13.334;2022-12-18T12:51:19;5.50;78.00
27633;DHT22;15046;50.930;13.334;2022-12-18T12:53:47;4.80;78.80
27633;DHT22;15046;50.930;13.334;2022-12-18T12:56:15;3.90;79.70
27633;DHT22;15046;50.930;13.334;2022-12-18T12:59:02;2.90;80.90
27633;DHT22;15046;50.930;13.334;2022-12-18T13:01:59;2.20;82.30
27633;DHT22;15046;50.930;13.334;2022-12-18T13:07:11;1.10;85.00
27633;DHT22;15046;50.930;13.334;2022-12-18T13:12:36;0.50;86.30
27633;DHT22;15046;50.930;13.334;2022-12-18T13:15:33;0.30;87.30
27633;DHT22;15046;50.930;13.334;2022-12-18T13:20:44;0.40;87.60
27633;DHT22;15046;50.930;13.334;2022-12-18T13:26:37;0.30;87.30
27633;DHT22;15046;50.930;13.334;2022-12-18T13:36:45;-0.40;88.40
27633;DHT22;15046;50.930;13.334;2022-12-18T13:41:41;-0.60;89.30
27633;DHT22;15046;50.930;13.334;2022-12-18T13:46:55;-0.80;89.80
27633;DHT22;15046;50.930;13.334;2022-12-18T13:49:23;-1.00;90.00
27633;DHT22;15046;50.930;13.334;2022-12-18T13:51:54;-1.00;90.00
27633;DHT22;15046;50.930;13.334;2022-12-18T13:54:36;-1.10;90.00
27633;DHT22;15046;50.930;13.334;2022-12-18T13:57:04;-1.10;90.10
27633;DHT22;15046;50.930;13.334;2022-12-18T14:02:12;-1.20;90.10
27633;DHT22;15046;50.930;13.334;2022-12-18T14:04:38;-1.30;90.10
27633;DHT22;15046;50.930;13.334;2022-12-18T14:07:17;-1.30;90.10
27633;DHT22;15046;50.930;13.334;2022-12-18T14:09:52;-1.50;90.10
27633;DHT22;15046;50.930;13.334;2022-12-18T14:12:26;-1.50;90.20
27633;DHT22;15046;50.930;13.334;2022-12-18T14:18:20;-1.70;90.30
27633;DHT22;15046;50.930;13.334;2022-12-18T14:20:48;-1.80;90.30
27633;DHT22;15046;50.930;13.334;2022-12-18T14:23:38;-1.90;90.30
27633;DHT22;15046;50.930;13.334;2022-12-18T14:28:46;-2.00;90.30
27633;DHT22;15046;50.930;13.334;2022-12-18T14:31:38;-2.00;90.40
27633;DHT22;15046;50.930;13.334;2022-12-18T14:34:04;-2.10;90.30
27633;DHT22;15046;50.930;13.334;2022-12-18T14:36:33;-2.10;90.30
27633;DHT22;15046;50.930;13.334;2022-12-18T14:38:59;-2.20;90.30
27633;DHT22;15046;50.930;13.334;2022-12-18T14:41:25;-2.20;90.30
27633;DHT22;15046;50.930;13.334;2022-12-18T14:43:53;-2.30;90.30
27633;DHT22;15046;50.930;13.334;2022-12-18T14:46:45;-2.30;90.30
27633;DHT22;15046;50.930;13.334;2022-12-18T14:52:01;-2.40;90.30
27633;DHT22;15046;50.930;13.334;2022-12-18T14:54:29;-2.50;90.30
27633;DHT22;15046;50.930;13.334;2022-12-18T14:59:28;-2.60;90.30
27633;DHT22;15046;50.930;13.334;2022-12-18T15:02:23;-2.70;90.30
27633;DHT22;15046;50.930;13.334;2022-12-18T15:07:44;-2.80;90.30
27633;DHT22;15046;50.930;13.334;2022-12-18T15:12:49;-3.00;90.30
27633;DHT22;15046;50.930;13.334;2022-12-18T15:20:54;-3.10;90.50
27633;DHT22;15046;50.930;13.334;2022-12-18T15:23:38;-3.20;90.50
27633;DHT22;15046;50.930;13.334;2022-12-18T15:26:11;-3.20;90.50
27633;DHT22;15046;50.930;13.334;2022-12-18T15:28:46;-3.20;90.60
27633;DHT22;15046;50.930;13.334;2022-12-18T15:33:40;-3.30;90.70
27633;DHT22;15046;50.930;13.334;2022-12-18T15:36:15;-3.40;90.70
27633;DHT22;15046;50.930;13.334;2022-12-18T15:38:41;-3.40;90.70
27633;DHT22;15046;50.930;13.334;2022-12-18T15:41:15;-3.50;90.90
27633;DHT22;15046;50.930;13.334;2022-12-18T15:43:41;-3.50;90.90
27633;DHT22;15046;50.930;13.334;2022-12-18T15:46:13;-3.50;90.90
27633;DHT22;15046;50.930;13.334;2022-12-18T15:48:47;-3.50;90.90
27633;DHT22;15046;50.930;13.334;2022-12-18T15:51:34;-3.60;90.80
27633;DHT22;15046;50.930;13.334;2022-12-18T15:54:01;-3.60;90.80
27633;DHT22;15046;50.930;13.334;2022-12-18T15:56:29;-3.60;90.80
27633;DHT22;15046;50.930;13.334;2022-12-18T15:59:15;-3.70;90.80
27633;DHT22;15046;50.930;13.334;2022-12-18T16:01:47;-3.70;90.90
27633;DHT22;15046;50.930;13.334;2022-12-18T16:04:14;-3.70;90.90
27633;DHT22;15046;50.930;13.334;2022-12-18T16:06:41;-3.70;90.90
27633;DHT22;15046;50.930;13.334;2022-12-18T16:09:07;-3.70;90.90
27633;DHT22;15046;50.930;13.334;2022-12-18T16:11:35;-3.70;90.90
27633;DHT22;15046;50.930;13.334;2022-12-18T16:16:41;-3.60;90.90
27633;DHT22;15046;50.930;13.334;2022-12-18T16:19:07;-3.60;90.90
27633;DHT22;15046;50.930;13.334;2022-12-18T16:21:33;-3.60;90.90
27633;DHT22;15046;50.930;13.334;2022-12-18T16:23:59;-3.60;90.80
27633;DHT22;15046;50.930;13.334;2022-12-18T16:26:25;-3.50;90.80
27633;DHT22;15046;50.930;13.334;2022-12-18T16:28:51;-3.50;90.80
27633;DHT22;15046;50.930;13.334;2022-12-18T16:31:16;-3.50;90.80
27633;DHT22;15046;50.930;13.334;2022-12-18T16:33:42;-3.50;90.80
27633;DHT22;15046;50.930;13.334;2022-12-18T16:36:08;-3.50;90.90
27633;DHT22;15046;50.930;13.334;2022-12-18T16:38:34;-3.40;90.80
27633;DHT22;15046;50.930;13.334;2022-12-18T16:41:00;-3.40;90.80
27633;DHT22;15046;50.930;13.334;2022-12-18T16:43:44;-3.30;90.80
27633;DHT22;15046;50.930;13.334;2022-12-18T16:46:10;-3.30;90.80
27633;DHT22;15046;50.930;13.334;2022-12-18T16:48:35;-3.20;90.80
27633;DHT22;15046;50.930;13.334;2022-12-18T16:51:03;-3.20;90.80
27633;DHT22;15046;50.930;13.334;2022-12-18T16:53:29;-3.10;90.90
27633;DHT22;15046;50.930;13.334;2022-12-18T16:56:01;-3.20;90.80
27633;DHT22;15046;50.930;13.334;2022-12-18T16:58:27;-3.10;90.80
27633;DHT22;15046;50.930;13.334;2022-12-18T17:00:53;-3.10;90.80
27633;DHT22;15046;50.930;13.334;2022-12-18T17:03:18;-3.10;90.80
27633;DHT22;15046;50.930;13.334;2022-12-18T17:05:44;-3.10;90.80
27633;DHT22;15046;50.930;13.334;2022-12-18T17:08:10;-3.10;90.80
27633;DHT22;15046;50.930;13.334;2022-12-18T17:10:35;-3.10;90.90
27633;DHT22;15046;50.930;13.334;2022-12-18T17:13:01;-3.10;90.90
27633;DHT22;15046;50.930;13.334;2022-12-18T17:15:27;-3.10;90.90
27633;DHT22;15046;50.930;13.334;2022-12-18T17:17:53;-3.10;90.90
27633;DHT22;15046;50.930;13.334;2022-12-18T17:20:19;-3.10;91.00
27633;DHT22;15046;50.930;13.334;2022-12-18T17:22:45;-3.10;91.00
27633;DHT22;15046;50.930;13.334;2022-12-18T17:25:10;-3.10;91.10
27633;DHT22;15046;50.930;13.334;2022-12-18T17:27:36;-3.10;91.10
27633;DHT22;15046;50.930;13.334;2022-12-18T17:30:03;-3.10;91.20
27633;DHT22;15046;50.930;13.334;2022-12-18T17:32:29;-3.10;91.20
27633;DHT22;15046;50.930;13.334;2022-12-18T17:34:54;-3.00;91.30
27633;DHT22;15046;50.930;13.334;2022-12-18T17:37:20;-3.00;91.30